Saturday, 6 April - Buffalo Inn Hotel, Hectorspruit
55km - 35km - 19km - 10km

Hosted by Lien se Kleuternes

25km Results

< Back to Results

16 April 2016

Buffalo Hotel, Hectorspruit

Name Sex Category Age Overall Pos. Gender Pos. Category Pos. Time Speed (km/h)
Pieter Benade Male Senior Men 38 1 1 1 00:54:48 27.37
Chris Van Den Heever Male Senior Men 47 2 2 2 00:58:41 25.56
Jooste Coetzee Male Sprocket Boys 12 3 3 1 01:00:05 24.97
Willie Horn Male Senior Men 47 4 4 3 01:01:42 24.31
Kobus Mans Male Senior Men 34 5 5 4 01:01:50 24.26
Anton Strydom Male Senior Men 45 6 6 5 01:02:07 24.15
Egbert de Bruyn Male Senior Men 59 7 7 6 01:02:59 23.82
Ryno Grobler Male Senior Men 27 8 8 7 01:03:36 23.58
Chris Visagie Male Senior Men 61 9 9 8 01:03:50 23.50
Benjamin Svacha Male Senior Men 15 10 10 9 01:03:56 23.46
Jo Mari Smith Female Senior Women 27 11 1 1 01:03:57 23.46
Franco Kritzinger Male Sprocket Boys 13 12 11 2 01:04:14 23.35
Adrian Steyn Male Senior Men 16 13 12 10 01:04:31 23.25
Paul Nel Male Senior Men 56 14 13 11 01:04:35 23.23
Rikus Janse van Rensburg Male Senior Men 44 15 14 12 01:05:41 22.84
Jan Coetzee Male Senior Men 42 16 15 13 01:07:13 22.32
Manny da Silva Male Senior Men 54 17 16 14 01:07:41 22.16
Bets Koegelenberg Female Senior Women 58 18 2 2 01:08:45 21.82
Reghardt Meyer Male Senior Men 38 19 17 15 01:08:49 21.80
LUAN SNYMAN Male Sprocket Boys 11 20 18 3 01:09:00 21.74
Conraad Bezuidenhout Male Senior Men 32 21 19 16 01:09:09 21.69
Mitchell Cordier Male Senior Men 43 22 20 17 01:09:40 21.53
Jacobus Opperman Male Senior Men 61 23 21 18 01:09:47 21.50
Dillon Botha Male Sprocket Boys 12 24 22 4 01:10:07 21.39
Jan Furstenberg Male Senior Men 25 25 23 19 01:10:11 21.37
Johan Wahlstrand Male Senior Men 32 26 24 20 01:10:14 21.36
Neliza Van Niekerk Female Senior Women 30 27 3 3 01:10:16 21.35
jessica shultz Female Senior Women 17 28 4 4 01:10:18 21.34
Merek Svacha Male Senior Men 44 29 25 21 01:10:35 21.25
Linda De Bruyn Female Senior Women 51 30 5 5 01:11:34 20.96
Matthew Harding Male Senior Men 27 31 26 22 01:11:56 20.85
Danie Willemse Male Senior Men 32 32 27 23 01:11:57 20.85
Avril Pretorius Female Senior Women 45 33 6 6 01:12:03 20.82
Carla Davis Female Senior Women 50 34 7 7 01:12:16 20.76
Eddie Wilken Male Senior Men 39 35 28 24 01:12:18 20.75
James Brunsdon Male Senior Men 51 36 29 25 01:12:33 20.68
Chris Basson Male Senior Men 35 37 30 26 01:12:52 20.59
Hannes Swanepoel Male Senior Men 26 38 31 27 01:13:06 20.52
Alex Craven Male Senior Men 50 39 32 28 01:14:09 20.23
Jan Kruger Male Senior Men 54 40 33 29 01:14:16 20.20
Colin Hume Male Senior Men 51 41 34 30 01:14:19 20.18
Ian Glass Male Senior Men 51 42 35 31 01:14:52 20.04
Tanya Smith Female Senior Women 40 43 8 8 01:15:20 19.91
Cecil Delport Male Senior Men 56 44 36 32 01:15:22 19.90
Antoinette Neethling Female Senior Women 38 45 9 9 01:15:38 19.83
nico vorster Male Senior Men 27 46 37 33 01:16:34 19.59
Sue de Beer Female Senior Women 59 47 10 10 01:16:40 19.57
stefan grobler Male Senior Men 22 48 38 34 01:16:46 19.54
Colin Pretorius Male Senior Men 46 49 39 35 01:16:59 19.48
Terence Terblans Male Sprocket Boys 13 50 40 5 01:17:31 19.35
Bronwyn Thomson Female Senior Women 42 51 11 11 01:17:38 19.32
Reino Schutte Male Senior Men 29 52 41 36 01:17:56 19.25
Brett Thomson Male Sprocket Boys 11 53 42 6 01:17:58 19.24
Hennie Gerber Male Senior Men 47 54 43 37 01:18:00 19.23
Lynette Furstenburg Female Senior Women 26 55 12 12 01:18:31 19.10
Sanja De Jongh Female Senior Women 24 56 13 13 01:18:51 19.02
Daniel Slabbert Male Senior Men 50 57 44 38 01:18:52 19.02
Jan Prinsloo Male Senior Men 56 58 45 39 01:19:04 18.97
Delia Smith Female Senior Women 48 59 14 14 01:19:06 18.96
Heinrich Nel Male Senior Men 31 60 46 40 01:19:41 18.82
Jan Basson Male Senior Men 65 61 47 41 01:20:09 18.71
Edmond Temperman Male Senior Men 25 62 48 42 01:22:08 18.26
johan snyman Male Senior Men 29 63 49 43 01:22:40 18.15
mareli snyman Female Senior Women 25 64 15 15 01:22:41 18.14
Morne Jacobs Male Senior Men 40 65 50 44 01:22:47 18.12
Yolande Jacobs Female Senior Women 41 66 16 16 01:22:49 18.11
Delmarie De Hollander Female Senior Women 41 67 17 17 01:22:51 18.11
Martin Slabbert Male Senior Men 62 68 51 45 01:23:06 18.05
Gerhard Van Der Walt Male Senior Men 57 69 52 46 01:23:08 18.04
Mbomgeni Mtembu Male Senior Men 35 70 53 47 01:23:28 17.97
Dewald Schutte Male Senior Men 28 71 54 48 01:23:45 17.91
Kallie Byleveld Male Senior Men 44 72 55 49 01:24:24 17.77
Ben Schutte Male Senior Men 48 73 56 50 01:24:27 17.76
Shane davidson Male Senior Men 24 74 57 51 01:25:16 17.59
Fiona Ralfe Female Senior Women 43 75 18 18 01:25:36 17.52
Michael Erasmus Male Sprocket Boys 13 76 58 7 01:25:49 17.48
izani vd merwe Female Sprocket Girls 12 77 19 1 01:25:51 17.47
Dan Louw Male Senior Men 41 78 59 52 01:25:52 17.47
Ruan Maritz Male Senior Men 18 79 60 53 01:25:55 17.46
Vaughn McIntosh Male Senior Men 55 80 61 54 01:27:32 17.14
Annelize Steenkamp Female Senior Women 44 81 20 19 01:28:10 17.01
Franco Van Rooyen Male Sprocket Boys 14 82 62 8 01:28:41 16.91
Zimri Leuvennink Female Sprocket Girls 12 83 21 2 01:28:47 16.90
stiena basson Female Senior Women 33 84 22 20 01:29:06 16.84
Larika Leuvennink Female Sprocket Girls 14 85 23 3 01:29:43 16.72
Heila Opperman Female Senior Women 59 86 24 21 01:30:46 16.53
SG Wilken Male Senior Men 28 87 63 55 01:32:23 16.24
Gert Van Wyk Male Senior Men 46 88 64 56 01:33:12 16.09
Patrys Byleveld Female Senior Women 43 89 25 22 01:33:54 15.97
Johan Basson Male Senior Men 39 90 65 57 01:34:34 15.86
Anin Koen Female Senior Women 23 91 26 23 01:35:14 15.75
johannes viljoen Male Senior Men 28 92 66 58 01:35:44 15.67
Marlize Van Zyl Female Senior Women 49 93 27 24 01:35:53 15.64
Henning Radley Male Senior Men 72 94 67 59 01:37:30 15.38
Anthony Smith Male Senior Men 29 95 68 60 01:37:31 15.38
Peter Kobrinowski Male Sprocket Boys 11 96 69 9 01:37:38 15.36
Eric Kobrinowski Male Senior Men 44 97 70 61 01:37:39 15.36
Johannes Opperman Male Sprocket Boys 10 98 71 10 01:38:48 15.18
Phillippus Opperman Male Senior Men 38 99 72 62 01:38:51 15.17
Ronnie Tosen Male Senior Men 30 100 73 63 01:38:53 15.17
Jolene Cordier Female Sprocket Girls 13 101 28 4 01:39:14 15.12
Johan Van Wyk Male Senior Men 52 102 74 64 01:44:15 14.39
Garth Brokensha Male Senior Men 56 103 75 65 01:44:38 14.34
Jacomie Nel Female Senior Women 25 104 29 25 01:45:45 14.18
Gerhard Basson Male Senior Men 33 105 76 66 01:50:38 13.56
Michiel Fursenberg Male Senior Men 62 106 77 67 01:50:41 13.55
Bronwyn Percy-Roberts Female Senior Women 25 107 30 26 01:50:55 13.52
Gill Brokensha Female Senior Women 52 108 31 27 01:51:49 13.41
Engela Schutte Female Senior Women 43 109 32 28 02:02:51 12.21
Lizelle De Lange Female Senior Women 26 110 33 29 02:04:49 12.02
Micheal Kritzinger Female Senior Women 29 111 34 30 02:04:51 12.01
sophia de vos Female Senior Women 42 112 35 31 02:04:53 12.01
Dean Byleveld Male Senior Men 22 113 78 68 02:10:52 11.46
christiaan du plessis Male Senior Men 15 114 79 69 02:11:06 11.44
Anleo Elizabeth Viljoen Female Sprocket Girls 13 115 36 5 02:17:28 10.91
Hester Viljoen Female Senior Women 66 116 37 32 02:17:57 10.87
marina coetzee Female Senior Women 29 117 38 33 02:36:38 9.58
Mike Terry Male Senior Men 57 999 999 999 01:14:24 20.16